Time;durP1;ratioP1;P1;durP2;ratioP2;P2;SDS_P1;SDS_P2;PMS_P1;PMS_P2;Temp;Humidity;BMP_temperature;BMP_pressure;BME280_temperature;BME280_humidity;BME280_pressure;Samples;Min_cycle;Max_cycle;Signal;HPM_P1;HPM_P2
2022/11/17 00:01:46;;;;;;;10.88;4.88;;;;;;;8.94;100.00;98475.28;21028711;28;20055;-75
2022/11/17 00:22:08;;;;;;;9.27;3.83;;;;;;;9.02;100.00;98424.56;21025085;28;20048;-73
2022/11/17 00:42:29;;;;;;;12.18;5.63;;;;;;;9.12;100.00;98378.88;20988762;28;20053;-75
2022/11/17 00:52:31;;;;;;;10.25;5.13;;;;;;;9.19;100.00;98359.41;20988682;28;20048;-72
2022/11/17 01:02:33;;;;;;;10.90;5.10;;;;;;;9.12;100.00;98356.22;20986073;28;20041;-73
2022/11/17 01:12:34;;;;;;;12.18;5.05;;;;;;;9.23;100.00;98337.47;20985674;28;20199;-73
2022/11/17 01:22:36;;;;;;;9.68;4.30;;;;;;;9.34;100.00;98316.13;20932530;28;20053;-74
2022/11/17 01:32:41;;;;;;;6.00;3.40;;;;;;;9.47;100.00;98281.53;20902501;28;20052;-72
2022/11/17 01:42:43;;;;;;;7.00;3.47;;;;;;;9.60;100.00;98258.34;20901955;28;20053;-72
2022/11/17 01:52:44;;;;;;;7.50;2.80;;;;;;;9.65;100.00;98230.22;20901259;28;20064;-71
2022/11/17 02:02:45;;;;;;;6.43;2.60;;;;;;;9.65;100.00;98213.72;20900418;28;20138;-72
2022/11/17 02:12:47;;;;;;;3.10;1.50;;;;;;;9.63;100.00;98205.06;20898485;28;20055;-70
2022/11/17 02:22:48;;;;;;;5.00;1.50;;;;;;;9.86;100.00;98181.31;20954103;28;20048;-71
2022/11/17 02:32:50;;;;;;;4.15;1.80;;;;;;;10.05;100.00;98196.94;20982111;28;20461;-72
2022/11/17 02:53:11;;;;;;;9.15;1.70;;;;;;;10.10;100.00;98212.41;20981231;28;20076;-75
2022/11/17 03:03:13;;;;;;;4.20;1.85;;;;;;;10.04;100.00;98200.50;20980297;28;20098;-76
2022/11/17 03:13:14;;;;;;;5.53;1.90;;;;;;;9.97;100.00;98189.50;20981836;28;20084;-74
2022/11/17 03:23:16;;;;;;;4.15;1.50;;;;;;;9.99;100.00;98190.25;20924604;28;20430;-76
2022/11/17 03:33:17;;;;;;;6.20;2.20;;;;;;;9.87;100.00;98203.94;20912393;28;20143;-75
2022/11/17 03:43:19;;;;;;;6.22;2.00;;;;;;;9.82;100.00;98190.25;20912840;28;20053;-76
2022/11/17 03:53:20;;;;;;;4.93;1.90;;;;;;;9.78;100.00;98178.25;20911378;28;20057;-75
2022/11/17 04:03:22;;;;;;;5.50;1.80;;;;;;;9.77;100.00;98176.53;20909274;28;20060;-75
2022/11/17 04:23:43;;;;;;;4.47;2.10;;;;;;;9.75;100.00;98163.53;20970631;28;20044;-74
2022/11/17 04:33:45;;;;;;;5.18;2.28;;;;;;;9.58;100.00;98180.94;20990255;28;20056;-74
2022/11/17 04:43:46;;;;;;;5.68;1.95;;;;;;;9.52;100.00;98182.91;20990928;28;20467;-76
2022/11/17 04:53:48;;;;;;;4.70;2.03;;;;;;;9.47;100.00;98173.59;20989097;28;20055;-73
2022/11/17 05:03:49;;;;;;;5.25;2.63;;;;;;;9.43;100.00;98148.53;20987834;28;20692;-73
2022/11/17 05:13:51;;;;;;;4.47;2.30;;;;;;;9.37;100.00;98154.06;21020521;28;20141;-73
2022/11/17 05:23:55;;;;;;;7.00;3.60;;;;;;;9.31;100.00;98157.81;20986088;28;20052;-75
2022/11/17 05:33:56;;;;;;;5.55;2.28;;;;;;;9.41;100.00;98173.91;20985393;28;20515;-75
2022/11/17 05:43:58;;;;;;;5.30;2.90;;;;;;;9.39;100.00;98175.72;20985306;28;20078;-75
2022/11/17 05:53:59;;;;;;;7.32;2.97;;;;;;;9.44;100.00;98140.66;20984840;28;20053;-75
2022/11/17 06:04:01;;;;;;;5.28;1.80;;;;;;;9.56;100.00;98130.53;20983591;28;20102;-75
2022/11/17 06:14:03;;;;;;;3.50;1.52;;;;;;;9.51;100.00;98155.09;20984253;28;20461;-75
2022/11/17 06:24:06;;;;;;;6.88;2.05;;;;;;;9.39;100.00;98166.16;20918396;28;20549;-73
2022/11/17 06:34:07;;;;;;;3.40;1.58;;;;;;;9.51;100.00;98155.09;20899575;28;20059;-74
2022/11/17 06:44:09;;;;;;;4.00;1.40;;;;;;;9.65;100.00;98124.88;20900179;28;20049;-74
2022/11/17 06:54:11;;;;;;;6.18;1.88;;;;;;;9.65;100.00;98145.78;20899306;28;20053;-72
2022/11/17 07:04:12;;;;;;;2.90;1.30;;;;;;;9.72;100.00;98157.59;21024019;28;20056;-75
2022/11/17 07:14:13;;;;;;;4.40;1.27;;;;;;;9.87;100.00;98151.66;21080245;28;20052;-75
2022/11/17 07:24:15;;;;;;;6.30;1.23;;;;;;;10.09;100.00;98166.28;21012744;28;20484;-75
2022/11/17 07:34:17;;;;;;;6.53;1.10;;;;;;;10.43;100.00;98166.31;20995483;28;20048;-80
2022/11/17 07:44:18;;;;;;;6.90;1.30;;;;;;;10.49;100.00;98171.25;20994238;28;20054;-73
2022/11/17 07:54:19;;;;;;;7.43;1.00;;;;;;;10.53;100.00;98167.53;20993589;28;20094;-73
2022/11/17 08:04:21;;;;;;;5.15;1.20;;;;;;;10.58;100.00;98176.91;20980241;28;20098;-73
2022/11/17 08:14:22;;;;;;;4.43;1.30;;;;;;;11.05;100.00;98180.50;20946483;28;20052;-72
2022/11/17 08:24:24;;;;;;;5.72;1.17;;;;;;;11.68;100.00;98177.09;20949755;28;20098;-73
2022/11/17 08:34:25;;;;;;;4.57;1.23;;;;;;;11.69;100.00;98189.28;20945894;28;20040;-71
2022/11/17 08:44:27;;;;;;;8.15;1.40;;;;;;;11.76;100.00;98206.34;20930320;28;20056;-70
2022/11/17 08:54:28;;;;;;;7.30;2.10;;;;;;;11.96;100.00;98210.50;20905393;28;20053;-71
2022/11/17 09:04:29;;;;;;;6.35;1.42;;;;;;;12.18;100.00;98223.28;20905349;28;20049;-71
2022/11/17 09:14:31;;;;;;;7.85;1.40;;;;;;;12.49;100.00;98217.09;20903651;28;20386;-71
2022/11/17 09:24:32;;;;;;;8.32;1.60;;;;;;;12.67;100.00;98228.28;20970437;28;20105;-70
2022/11/17 09:34:34;;;;;;;11.20;1.73;;;;;;;12.65;100.00;98245.06;20984961;28;20052;-71
2022/11/17 09:44:38;;;;;;;9.50;1.98;;;;;;;12.49;100.00;98253.81;20983644;28;20114;-71
2022/11/17 09:54:40;;;;;;;7.40;1.83;;;;;;;12.62;100.00;98259.22;20984020;28;20068;-71
2022/11/17 10:04:41;;;;;;;8.98;1.73;;;;;;;12.60;100.00;98263.72;20983753;28;20348;-71
2022/11/17 10:14:43;;;;;;;10.05;2.10;;;;;;;12.38;100.00;98279.00;20982829;28;20071;-72
2022/11/17 10:24:46;;;;;;;10.60;2.00;;;;;;;12.10;100.00;98321.69;20911834;28;20132;-74
2022/11/17 10:34:47;;;;;;;9.93;2.10;;;;;;;11.26;100.00;98332.25;20903539;28;20053;-74
2022/11/17 10:44:52;;;;;;;10.05;2.05;;;;;;;11.05;100.00;98327.16;20914617;28;20402;-76
2022/11/17 10:54:53;;;;;;;13.43;3.93;;;;;;;11.52;100.00;98289.78;20916109;28;20045;-76
2022/11/17 11:04:54;;;;;;;10.40;2.15;;;;;;;11.82;100.00;98299.59;20913515;28;20799;-75
2022/11/17 11:14:56;;;;;;;7.63;1.70;;;;;;;11.59;100.00;98299.94;20912634;28;20512;-75
2022/11/17 11:24:57;;;;;;;9.95;2.72;;;;;;;11.63;100.00;98296.22;20984777;28;20783;-76
2022/11/17 11:34:59;;;;;;;10.40;2.10;;;;;;;11.65;100.00;98278.66;20993347;28;20076;-76
2022/11/17 11:45:00;;;;;;;9.43;2.15;;;;;;;11.86;100.00;98277.50;20994548;28;20048;-75
2022/11/17 11:55:02;;;;;;;10.25;1.77;;;;;;;11.87;100.00;98280.97;20993451;28;20497;-74
2022/11/17 12:05:03;;;;;;;6.60;1.30;;;;;;;11.78;100.00;98291.00;20991310;28;20053;-74
2022/11/17 12:15:04;;;;;;;10.13;2.63;;;;;;;11.97;100.00;98296.13;20990407;28;20059;-73
2022/11/17 12:25:06;;;;;;;11.00;1.52;;;;;;;12.01;100.00;98296.81;20916737;28;20052;-74
2022/11/17 12:35:08;;;;;;;8.05;1.88;;;;;;;11.87;100.00;98302.81;20906105;28;20056;-74
2022/11/17 12:45:09;;;;;;;6.15;1.30;;;;;;;11.74;100.00;98284.25;20907715;28;20051;-73
2022/11/17 12:55:10;;;;;;;11.10;1.40;;;;;;;11.46;100.00;98352.19;20903850;28;20059;-73
2022/11/17 13:05:13;;;;;;;5.38;0.90;;;;;;;11.36;100.00;98316.91;20903658;28;20099;-73
2022/11/17 13:15:14;;;;;;;7.22;1.15;;;;;;;11.79;100.00;98312.84;20903291;28;20052;-74
2022/11/17 13:25:16;;;;;;;7.70;1.30;;;;;;;11.93;100.00;98294.63;20977101;28;20052;-72
2022/11/17 13:35:17;;;;;;;5.00;0.90;;;;;;;11.82;100.00;98331.91;20980674;28;20060;-73
2022/11/17 13:45:19;;;;;;;7.45;1.65;;;;;;;11.44;100.00;98331.28;20981291;28;20106;-77
2022/11/17 13:55:20;;;;;;;7.57;1.90;;;;;;;11.22;100.00;98341.19;20985970;28;20048;-79
2022/11/17 14:05:22;;;;;;;7.93;1.67;;;;;;;11.21;100.00;98331.63;20983679;28;20050;-77
2022/11/17 14:15:23;;;;;;;11.02;2.03;;;;;;;11.17;100.00;98325.72;20982823;28;20082;-79
2022/11/17 14:25:25;;;;;;;7.07;1.50;;;;;;;11.12;100.00;98326.88;20916140;28;20049;-79
2022/11/17 14:35:26;;;;;;;10.38;2.83;;;;;;;11.13;100.00;98318.09;20907753;28;20111;-79
2022/11/17 14:45:28;;;;;;;10.98;3.10;;;;;;;11.04;100.00;98315.00;20910792;28;20053;-80
2022/11/17 14:55:30;;;;;;;11.07;3.30;;;;;;;10.97;100.00;98329.34;20910473;28;20048;-80
2022/11/17 15:05:31;;;;;;;7.95;2.72;;;;;;;10.92;100.00;98341.81;20917650;28;20048;-83
2022/11/17 15:15:32;;;;;;;21.23;8.02;;;;;;;10.83;100.00;98325.69;21083772;28;20143;-79
2022/11/17 15:25:34;;;;;;;11.73;3.83;;;;;;;10.70;100.00;98328.09;21002108;28;20052;-78
2022/11/17 15:35:35;;;;;;;11.63;2.33;;;;;;;10.68;100.00;98312.47;20961788;22;20056;-72
2022/11/17 15:45:37;;;;;;;13.38;3.80;;;;;;;10.63;100.00;98313.59;20982068;28;20052;-70
2022/11/17 15:55:38;;;;;;;8.45;3.03;;;;;;;10.62;100.00;98322.38;20994943;28;20114;-70
2022/11/17 16:05:39;;;;;;;16.83;5.57;;;;;;;10.64;100.00;98344.09;20988856;28;20094;-71
2022/11/17 16:15:41;;;;;;;15.90;5.57;;;;;;;10.61;100.00;98323.31;20990210;28;20048;-71
2022/11/17 16:25:42;;;;;;;17.55;6.40;;;;;;;10.59;100.00;98319.91;20989647;28;20469;-72
2022/11/17 16:35:44;;;;;;;24.05;8.25;;;;;;;10.60;100.00;98330.31;20986305;28;20052;-71
2022/11/17 16:45:46;;;;;;;17.35;9.93;;;;;;;10.45;100.00;98325.84;20987992;28;20052;-73
2022/11/17 16:55:47;;;;;;;20.02;8.02;;;;;;;10.45;100.00;98331.06;20983705;28;20054;-73
2022/11/17 17:05:49;;;;;;;14.52;6.43;;;;;;;10.39;100.00;98353.13;20965014;28;20049;-73
2022/11/17 17:15:50;;;;;;;24.40;11.13;;;;;;;10.39;100.00;98347.03;20946511;28;20052;-73
2022/11/17 17:25:51;;;;;;;12.07;3.80;;;;;;;10.28;100.00;98381.56;20913907;28;20551;-72
2022/11/17 17:35:53;;;;;;;12.23;3.00;;;;;;;10.08;100.00;98364.16;20896181;28;20398;-74
2022/11/17 17:45:54;;;;;;;9.05;2.38;;;;;;;10.06;100.00;98344.22;20974573;28;20472;-71
2022/11/17 17:55:56;;;;;;;41.67;16.92;;;;;;;10.08;100.00;98343.22;20975070;28;20060;-71
2022/11/17 18:05:57;;;;;;;23.38;14.15;;;;;;;10.09;100.00;98365.00;20970745;28;20052;-71
2022/11/17 18:15:58;;;;;;;22.08;9.40;;;;;;;10.09;100.00;98372.84;20937729;28;20556;-71
2022/11/17 18:26:00;;;;;;;23.20;10.80;;;;;;;10.08;100.00;98364.16;20972102;28;20042;-71
2022/11/17 18:36:01;;;;;;;19.83;9.63;;;;;;;10.02;100.00;98372.28;20970930;28;20053;-71
2022/11/17 18:46:03;;;;;;;15.95;6.10;;;;;;;9.87;100.00;98371.22;20971123;28;20040;-71
2022/11/17 18:56:04;;;;;;;14.50;7.10;;;;;;;9.90;100.00;98391.97;21017916;28;20051;-71
2022/11/17 19:06:05;;;;;;;14.85;6.40;;;;;;;9.91;100.00;98377.97;21071629;28;20054;-71
2022/11/17 19:16:07;;;;;;;24.25;15.23;;;;;;;9.96;100.00;98389.06;21015125;28;20130;-71
2022/11/17 19:26:08;;;;;;;20.50;10.75;;;;;;;9.95;100.00;98408.31;20904592;28;20060;-71
2022/11/17 19:36:10;;;;;;;11.07;4.70;;;;;;;9.83;100.00;98408.88;20903291;28;20049;-71
2022/11/17 19:46:11;;;;;;;9.98;2.80;;;;;;;9.78;100.00;98397.78;20944679;28;20052;-71
2022/11/17 19:56:12;;;;;;;10.45;3.20;;;;;;;9.77;100.00;98422.19;20984138;28;20511;-71
2022/11/17 20:06:14;;;;;;;6.15;2.20;;;;;;;9.73;100.00;98420.66;20982460;28;20281;-71
2022/11/17 20:16:15;;;;;;;6.15;1.98;;;;;;;9.56;100.00;98428.34;20983228;28;20995;-70
2022/11/17 20:26:17;;;;;;;3.47;1.45;;;;;;;9.64;100.00;98441.94;20899146;28;20048;-71
2022/11/17 20:36:18;;;;;;;5.03;1.77;;;;;;;9.66;100.00;98463.63;20898486;28;20049;-70
2022/11/17 20:46:19;;;;;;;4.22;1.20;;;;;;;9.70;100.00;98468.66;20897838;28;20052;-70
2022/11/17 20:56:21;;;;;;;6.93;1.95;;;;;;;9.59;100.00;98483.09;20897316;28;20060;-70
2022/11/17 21:06:22;;;;;;;6.40;2.78;;;;;;;9.33;100.00;98485.03;20896532;28;20056;-70
2022/11/17 21:16:24;;;;;;;3.75;1.50;;;;;;;9.06;100.00;98494.00;20951242;28;20044;-70
2022/11/17 21:26:26;;;;;;;6.57;3.45;;;;;;;8.98;100.00;98499.50;20895360;28;20115;-70
2022/11/17 21:36:28;;;;;;;12.73;2.97;;;;;;;8.93;100.00;98491.03;21064594;23;20044;-75
2022/11/17 21:46:29;;;;;;;4.65;1.83;;;;;;;8.89;100.00;98495.50;20976250;28;20431;-74
2022/11/17 21:56:31;;;;;;;3.38;1.50;;;;;;;8.86;100.00;98494.75;20974869;28;20491;-75
2022/11/17 22:06:32;;;;;;;3.92;1.35;;;;;;;8.90;100.00;98502.41;20974791;28;20090;-74
2022/11/17 22:16:34;;;;;;;4.22;1.50;;;;;;;8.99;100.00;98493.38;20971654;28;21557;-74
2022/11/17 22:26:37;;;;;;;4.80;1.20;;;;;;;9.00;100.00;98503.75;20891838;28;20067;-76
2022/11/17 22:36:38;;;;;;;4.07;1.30;;;;;;;8.98;100.00;98510.81;20906802;28;20075;-71
2022/11/17 22:46:41;;;;;;;4.97;1.13;;;;;;;8.92;100.00;98499.78;20907235;28;20521;-72
2022/11/17 22:56:43;;;;;;;6.40;1.30;;;;;;;8.82;100.00;98504.50;20905027;28;20387;-71
2022/11/17 23:06:44;;;;;;;2.35;0.90;;;;;;;8.77;100.00;98516.00;20970023;28;20049;-75
2022/11/17 23:16:45;;;;;;;4.47;0.80;;;;;;;8.74;100.00;98516.97;20992139;28;20150;-73
2022/11/17 23:26:47;;;;;;;2.97;1.02;;;;;;;8.77;100.00;98522.09;20913696;28;20056;-72
2022/11/17 23:36:48;;;;;;;3.88;1.10;;;;;;;8.66;100.00;98532.06;20911475;28;20045;-71
2022/11/17 23:46:49;;;;;;;5.13;1.50;;;;;;;8.66;100.00;98524.25;20910472;28;20052;-73
2022/11/17 23:56:51;;;;;;;13.88;5.63;;;;;;;8.66;100.00;98511.19;20910751;28;20049;-71
